Terminal Aerodrome Forecast
Issued by NWS Wilmington, OH

Current Version | Previous Version | Graphics & Text | Print | Product List | Glossary On
Versions: 1 2 3 4 5 6 7 8 9 10 11 12 13 14 15 16 17 18 19 20 21 22 23 24
000
FTUS41 KILN 311738
TAFDAY
TAF
KDAY 311738Z 3118/0118 30010G16KT P6SM SCT040
     FM312100 27010G18KT P6SM VCSH BKN040
     FM010100 26005KT P6SM FEW080
     FM011500 29008KT P6SM SCT060=

USA.gov is the U.S. government's official web portal to all federal, state and local government web resources and services.